Ogallala, Nebraska
Current Conditions -  °F | °C
As of 6:15 PM on Sunday 21 Dec 2014 (Local Time) from KOGA Reporting Station
Light Rain Light Rain  
Wind Chill: 27°   Ceiling: 5500
Heat Index: 35°   Visibility: 10mi
Dew Point: 32°   Wind: 12mph
Humidity: 88%   Direction: 290°WNW
Pressure: 29.5"   Gusts: NA
Location:  41.12°N, 101.71°W
Report Text: KOGA 220115Z AUTO 29010KT 10SM -RA SCT039 BKN055 OVC080 02/00 A2950 RMK AO2 T00190001
Loading
Personal Weather Stations






























Interactive Weather Map New forecast layout! Learn more

10-Day Weather Forecast

Advertisements
Track Severe Weather on mobile